Hlavní strana
METAR-TAF:

METAR-TAF

Letiště :

Kuressaare, Estonsko

zeměpisná šířka: 58-13-48N, zeměpisná délka: 022-30-34E, výška: 4 m

Aktuální stav počasí

Zpráva byla vytvořena před 1 hodinou a 5 minutami, v 12:50 UTC
Jihojihozápadní vítr 15 kt
Teplota 4°C
Vlhkost vzduchu 87%
Tlak 999 hPa
Viditelnost 10 km a více
Oblačno až skoro zataženo ve výšce 2000 ft
Zataženo ve výšce 4800 ft
slabý déšť

METAR: EEKE 181250Z 21015KT 9999 -RA BKN020 OVC048 04/02 Q0999 R17/290195

Čas: 15:55 (13:55 UTC)

Předpověď počasí

Zpráva byla vytvořena před 7 hodinami a 55 minutami, v 06:00 UTC
Předpověď platná od 18 v 07 UTC do 18 v 13 UTC
Jižní vítr 15 kt
Viditelnost 10 km a více
Zataženo ve výšce 2500 ft
Dočasný
od 18 v 07 UTC do 18 v 12 UTC
Jižní vítr 13 kt s nárazy do 23 kt
Viditelnost: 5000 m
Polojasno ve výšce 1000 ft
Polojasno ve výšce 1300 ft, Cumulonimbus.
Zataženo ve výšce 2500 ft
dešťové přeháňky

TAF: EEKE 180600Z 1807/1813 19015KT 9999 OVC025 TEMPO 1807/1812 17013G23KT 5000 SHRA SCT010 SCT013CB OVC025

Stav a předpovědi počasí z více než 4 000 letišť (zprávy METAR a TAF).

Červené a žluté tečky na mapě představují dostupné meteorologické stanice.

Když kurzor umístíte na tečku, zobrazí se název stanice.

Pak kliknutím zobrazíte stav a předpověď počasí.

Chcete-li změnit mapu, kliknutím na zelené tlačítko se znaménkem +mapu přiblížíte, kliknutím na zelené tlačítko se znaménkem – mapu oddálíte a kliknutím na zelené šipky přejdete na sousední mapy.


METAR-TAF: